Coral Ruby — 3ERR6 — position and weather

sailwx.info

Track history (hours):
 
Tides and Currents Weather Stations Pressure Air Temp Water Temp Dewpoint Dewpoint Depression Visibility Wind Speed Wind Dir Waves Ship Positions

Coral Ruby

Last reported at 2016-Aug-23 23:24 UTC. Time now 2016-Aug-28 22:26 UTC.
Position N 37°40' W 127°09'.

Length 225 m; draft 14.2 m.

Type: Ship. MMSI: 370150000.

Date/timePositionNaut miles runAvg speedWind from/ knotsBaromVisibWave heightAir tempDewpointWater temp
2016-Aug-23 23:24N 37°40' W 127°09'5210.7
2016-Aug-23 18:29N 37°12' W 126°13'3610.8
2016-Aug-23 15:10N 36°52' W 125°36'711.3
2016-Aug-23 14:32N 36°48' W 125°28'2210.9
2016-Aug-23 12:31N 36°37' W 125°05'1111.3
2016-Aug-23 11:33N 36°31' W 124°54'1211.5
2016-Aug-23 10:33N 36°25' W 124°42'1411.0
2016-Aug-23 09:15N 36°17' W 124°27'811.1
2016-Aug-23 08:33N 36°13' W 124°18'1111.0
2016-Aug-23 07:33N 36°07' W 124°07'1110.9
2016-Aug-23 06:33N 36°01' W 123°56'1111.0
2016-Aug-23 05:33N 35°56' W 123°44'1111.0
2016-Aug-23 04:33N 35°50' W 123°33'1111.1
2016-Aug-23 03:33N 35°44' W 123°21'1211.5
2016-Aug-23 02:33N 35°38' W 123°09'1111.4
2016-Aug-23 01:33N 35°31' W 122°57'1111.4
2016-Aug-23 00:33N 35°25' W 122°46'1111.5
2016-Aug-22 23:33N 35°19' W 122°34'1111.5
2016-Aug-22 22:33N 35°13' W 122°22'1111.3
2016-Aug-22 21:33N 35°06' W 122°10'1111.2
2016-Aug-22 20:33N 35°01' W 121°59'1111.1
2016-Aug-22 19:33N 34°55' W 121°47'1211.9
2016-Aug-22 18:33N 34°48' W 121°35'1312.1
2016-Aug-22 17:31N 34°41' W 121°22'1612.1
2016-Aug-22 16:13N 34°33' W 121°06'3111.2
2016-Aug-22 13:26N 34°21' W 120°31'1210.9
2016-Aug-22 12:20N 34°18' W 120°17'810.4
2016-Aug-22 11:33N 34°16' W 120°07'1010.1
2016-Aug-22 10:33N 34°14' W 119°56'2010.0
2016-Aug-22 08:33N 34°08' W 119°32'1010.3
2016-Aug-22 07:33N 34°05' W 119°20'1010.3
2016-Aug-22 06:33N 34°01' W 119°09'1010.0
2016-Aug-22 05:33N 33°56' W 118°59'10 9.5
2016-Aug-22 04:33N 33°52' W 118°49'10 9.6
2016-Aug-22 03:33N 33°47' W 118°39'1010.2
2016-Aug-22 02:33N 33°42' W 118°28'1010.2
2016-Aug-22 01:33N 33°38' W 118°16'7 6.7
2016-Aug-22 00:33N 33°44' W 118°12'1 0.6
2016-Aug-21 22:30N 33°45' W 118°12'0 0.0
2016-Aug-21 21:30N 33°45' W 118°12'0 0.0
2016-Aug-21 20:18N 33°45' W 118°12'0 0.0
2016-Aug-21 19:30N 33°45' W 118°12'0 0.0
2016-Aug-21 18:24N 33°45' W 118°12'0 0.0
2016-Aug-21 17:30N 33°45' W 118°12'0 0.0
2016-Aug-21 16:06N 33°45' W 118°12'0 0.0
2016-Aug-21 15:33N 33°45' W 118°12'0 0.0
2016-Aug-21 14:30N 33°45' W 118°12'0 0.0
2016-Aug-21 13:30N 33°45' W 118°12'0 0.0
2016-Aug-21 12:30N 33°45' W 118°12'0 0.0
2016-Aug-21 11:33N 33°45' W 118°12'0 0.0
2016-Aug-21 10:15N 33°45' W 118°12'0 0.0
2016-Aug-21 09:33N 33°45' W 118°12'0 0.0
2016-Aug-21 08:30N 33°45' W 118°12'0 0.0
2016-Aug-21 07:33N 33°45' W 118°12'0 0.0
2016-Aug-21 06:30N 33°45' W 118°12'0 0.0
2016-Aug-21 05:30N 33°45' W 118°12'0 0.0
2016-Aug-21 04:30N 33°45' W 118°12'0 0.0
2016-Aug-21 03:27N 33°45' W 118°12'0 0.1
2016-Aug-21 02:33N 33°45' W 118°12'2 1.9
2016-Aug-21 01:29N 33°44' W 118°10'0 0.0
2016-Aug-21 00:32N 33°44' W 118°10'0 0.0
2016-Aug-20 23:32N 33°44' W 118°10'0 0.0
2016-Aug-20 22:32N 33°44' W 118°10'0 0.0
2016-Aug-20 21:26N 33°44' W 118°10'0 0.0
2016-Aug-20 20:29N 33°44' W 118°10'0 0.0
2016-Aug-20 19:29N 33°44' W 118°10'0 0.0
2016-Aug-20 18:08N 33°44' W 118°10'0 0.1
2016-Aug-20 17:14N 33°44' W 118°10'0 0.0
2016-Aug-20 16:32N 33°44' W 118°10'0 0.1
2016-Aug-20 15:32N 33°44' W 118°10'0 0.0
2016-Aug-20 14:32N 33°44' W 118°10'0 0.0
2016-Aug-20 13:32N 33°44' W 118°10'0 0.0
2016-Aug-20 12:29N 33°44' W 118°10'0 0.0
2016-Aug-20 11:32N 33°44' W 118°10'0 0.0
2016-Aug-20 10:32N 33°44' W 118°10'0 0.0
2016-Aug-20 09:32N 33°44' W 118°10'0 0.0
2016-Aug-20 08:29N 33°44' W 118°10'0 0.0
2016-Aug-20 07:26N 33°44' W 118°10'0 0.0
2016-Aug-20 06:32N 33°44' W 118°10'0 0.0
2016-Aug-20 04:17N 33°44' W 118°10'0 0.0
2016-Aug-20 03:32N 33°44' W 118°10'0 0.0
2016-Aug-20 02:32N 33°44' W 118°10'0 0.0
2016-Aug-20 01:32N 33°44' W 118°10'0 0.0
2016-Aug-20 00:32N 33°44' W 118°10'0 0.0
2016-Aug-19 23:32N 33°44' W 118°10'0 0.0
2016-Aug-19 22:29N 33°44' W 118°10'0 0.0
2016-Aug-19 21:32N 33°44' W 118°10'0 0.0
2016-Aug-19 20:32N 33°44' W 118°10'0 0.0
2016-Aug-19 19:29N 33°44' W 118°10'0 0.0
2016-Aug-19 18:29N 33°44' W 118°10'0 0.0
2016-Aug-19 17:32N 33°44' W 118°10'0 0.0
2016-Aug-19 16:32N 33°44' W 118°10'0 0.0
2016-Aug-19 15:32N 33°44' W 118°10'0 0.0
2016-Aug-19 14:32N 33°44' W 118°10'0 0.0
2016-Aug-19 13:33N 33°44' W 118°10'0 0.0
2016-Aug-19 12:32N 33°44' W 118°10'0 0.0
2016-Aug-19 11:32N 33°44' W 118°10'0 0.0
2016-Aug-19 10:26N 33°44' W 118°10'0 0.0
2016-Aug-19 09:32N 33°44' W 118°10'0 0.0
2016-Aug-19 08:29N 33°44' W 118°10'0 0.1
2016-Aug-19 07:32N 33°44' W 118°10'0 0.0
2016-Aug-19 06:32N 33°44' W 118°10'0 0.0
2016-Aug-19 05:32N 33°44' W 118°10'0 0.0
2016-Aug-19 04:23N 33°44' W 118°10'0 0.0
2016-Aug-19 03:29N 33°44' W 118°10'0 0.0
2016-Aug-19 02:32N 33°44' W 118°10'0 0.0
2016-Aug-19 01:32N 33°44' W 118°10'0 0.2
2016-Aug-19 00:29N 33°44' W 118°11'2 1.9
2016-Aug-18 23:33N 33°45' W 118°12'0 0.0
2016-Aug-18 22:32N 33°45' W 118°12'0 0.0
2016-Aug-18 21:32N 33°45' W 118°12'0 0.0
2016-Aug-18 20:32N 33°45' W 118°12'0 0.0
2016-Aug-18 19:32N 33°45' W 118°12'0 0.0
2016-Aug-18 18:32N 33°45' W 118°12'0 0.0
2016-Aug-18 17:23N 33°45' W 118°12'0 0.0
2016-Aug-18 16:32N 33°45' W 118°12'0 0.0
2016-Aug-18 15:32N 33°45' W 118°12'0 0.0
2016-Aug-18 14:32N 33°45' W 118°12'0 0.0
2016-Aug-18 13:32N 33°45' W 118°12'0 0.0
2016-Aug-18 12:32N 33°45' W 118°12'0 0.0
2016-Aug-18 11:32N 33°45' W 118°12'0 0.0
2016-Aug-18 10:32N 33°45' W 118°12'0 0.0
2016-Aug-18 09:32N 33°45' W 118°12'0 0.0
2016-Aug-18 08:29N 33°45' W 118°12'0 0.0
2016-Aug-18 07:32N 33°45' W 118°12'0 0.0
2016-Aug-18 06:32N 33°45' W 118°12'0 0.0
2016-Aug-18 05:32N 33°45' W 118°12'0 0.0
2016-Aug-18 04:29N 33°45' W 118°12'0 0.0
2016-Aug-18 03:32N 33°45' W 118°12'0 0.0
2016-Aug-18 02:32N 33°45' W 118°12'0 0.0
2016-Aug-18 01:32N 33°45' W 118°12'0 0.0
2016-Aug-18 00:32N 33°45' W 118°12'0 0.0
2016-Aug-17 23:32N 33°45' W 118°12'0 0.0
2016-Aug-17 22:32N 33°45' W 118°12'0 0.0
2016-Aug-17 21:32N 33°45' W 118°12'0 0.0
2016-Aug-17 20:32N 33°45' W 118°12'0 0.0
2016-Aug-17 19:32N 33°45' W 118°12'0 0.0
2016-Aug-17 18:29N 33°45' W 118°12'0 0.0
2016-Aug-17 14:29N 33°45' W 118°12'0 0.0
2016-Aug-17 13:32N 33°45' W 118°12'0 0.0
2016-Aug-17 12:23N 33°45' W 118°12'0 0.0
2016-Aug-17 11:32N 33°45' W 118°12'0 0.0
2016-Aug-17 10:32N 33°45' W 118°12'0 0.0
2016-Aug-17 09:32N 33°45' W 118°12'0 0.0
2016-Aug-17 08:32N 33°45' W 118°12'0 0.0
2016-Aug-17 07:32N 33°45' W 118°12'0 0.0
2016-Aug-17 06:32N 33°45' W 118°12'0 0.0
2016-Aug-17 05:32N 33°45' W 118°12'0 0.0
2016-Aug-17 04:23N 33°45' W 118°12'0 0.0
2016-Aug-17 03:32N 33°45' W 118°12'0 0.0
2016-Aug-17 02:32N 33°45' W 118°12'0 0.0
2016-Aug-17 01:32N 33°45' W 118°12'0 0.0
2016-Aug-17 00:20N 33°45' W 118°12'0 0.0
2016-Aug-16 23:32N 33°45' W 118°12'0 0.0
2016-Aug-16 22:32N 33°45' W 118°12'0 0.0
2016-Aug-16 21:32N 33°45' W 118°12'0 0.0
2016-Aug-16 20:32N 33°45' W 118°12'0 0.0
2016-Aug-16 19:32N 33°45' W 118°12'0 0.0
2016-Aug-16 18:32N 33°45' W 118°12'0 0.0
2016-Aug-16 17:32N 33°45' W 118°12'0 0.0
2016-Aug-16 16:32N 33°45' W 118°12'0 0.0
2016-Aug-16 15:32N 33°45' W 118°12'0 0.0
2016-Aug-16 14:32N 33°45' W 118°12'0 0.0
2016-Aug-16 13:32N 33°45' W 118°12'0 0.0
2016-Aug-16 12:32N 33°45' W 118°12'0 0.0
2016-Aug-16 11:32N 33°45' W 118°12'0 0.0
2016-Aug-16 10:32N 33°45' W 118°12'0 0.0
2016-Aug-16 09:32N 33°45' W 118°12'0 0.0
2016-Aug-16 08:32N 33°45' W 118°12'0 0.0
2016-Aug-16 07:32N 33°45' W 118°12'4 1.4
2016-Aug-16 04:32N 33°42' W 118°09'0 0.0
2016-Aug-16 03:32N 33°42' W 118°09'0 0.0
2016-Aug-16 02:32N 33°42' W 118°09'0 0.0
2016-Aug-16 01:32N 33°42' W 118°09'0 0.0
2016-Aug-16 00:32N 33°42' W 118°09'0 0.0
2016-Aug-15 23:32N 33°42' W 118°09'0 0.0
2016-Aug-15 22:32N 33°42' W 118°09'0 0.0
2016-Aug-15 21:32N 33°42' W 118°09'0 0.0
2016-Aug-15 20:32N 33°42' W 118°09'0 0.0
2016-Aug-15 19:32N 33°42' W 118°09'0 0.0
2016-Aug-15 18:32N 33°42' W 118°09'0 0.0
2016-Aug-15 17:32N 33°42' W 118°09'0 0.1
2016-Aug-15 16:32N 33°42' W 118°09'0 0.0
2016-Aug-15 15:32N 33°42' W 118°09'0 0.0
2016-Aug-15 14:32N 33°42' W 118°09'0 0.0
2016-Aug-15 13:32N 33°42' W 118°09'0 0.0
2016-Aug-15 12:32N 33°42' W 118°09'0 0.0
2016-Aug-15 11:32N 33°42' W 118°09'0 0.0
2016-Aug-15 10:32N 33°42' W 118°09'0 0.1
2016-Aug-15 09:32N 33°42' W 118°09'0 0.0
2016-Aug-15 08:32N 33°42' W 118°09'0 0.0
2016-Aug-15 07:29N 33°42' W 118°09'0 0.0
2016-Aug-15 06:32N 33°42' W 118°09'0 0.0
2016-Aug-15 04:32N 33°42' W 118°09'0 0.0
2016-Aug-15 03:32N 33°42' W 118°09'0 0.0
2016-Aug-15 02:32N 33°42' W 118°09'0 0.0
2016-Aug-15 01:32N 33°42' W 118°09'0 0.0
2016-Aug-15 00:32N 33°42' W 118°09'0 0.0
2016-Aug-14 23:32N 33°42' W 118°09'0 0.0
2016-Aug-14 22:32N 33°42' W 118°09'0 0.0
2016-Aug-14 21:32N 33°42' W 118°09'0 0.0
2016-Aug-14 20:32N 33°42' W 118°09'0 0.0
2016-Aug-14 19:32N 33°42' W 118°09'0 0.0
2016-Aug-14 18:32N 33°42' W 118°09'0 0.1
2016-Aug-14 17:32N 33°42' W 118°09'0 0.0
2016-Aug-14 16:32N 33°42' W 118°09'0 0.0
2016-Aug-14 15:32N 33°42' W 118°09'0 0.0
2016-Aug-14 14:32N 33°42' W 118°09'0 0.1
2016-Aug-14 13:32N 33°42' W 118°09'0 0.1
2016-Aug-14 12:32N 33°42' W 118°09'0 0.0
2016-Aug-14 11:32N 33°42' W 118°09'0 0.0
2016-Aug-14 10:32N 33°42' W 118°09'0 0.0
2016-Aug-14 09:32N 33°42' W 118°09'0 0.1
2016-Aug-14 08:32N 33°42' W 118°09'0 0.0
2016-Aug-14 07:32N 33°42' W 118°09'0 0.0
2016-Aug-14 06:32N 33°42' W 118°09'0 0.0
2016-Aug-14 04:32N 33°42' W 118°09'0 0.0
2016-Aug-14 03:32N 33°42' W 118°09'0 0.0
2016-Aug-14 02:32N 33°42' W 118°09'0 0.0
2016-Aug-14 01:32N 33°42' W 118°09'0 0.0
2016-Aug-14 00:32N 33°42' W 118°09'0 0.0
2016-Aug-13 23:32N 33°42' W 118°09'  
Track history (hours):
 
Tides and Currents Weather Stations Pressure Air Temp Water Temp Dewpoint Dewpoint Depression Visibility Wind Speed Wind Dir Waves Ship Positions

Coral Ruby

Last reported at 2016-Aug-23 23:24 UTC. Time now 2016-Aug-28 22:26 UTC.
Position N 37°40' W 127°09'.

Length 225 m; draft 14.2 m.

Type: Ship. MMSI: 370150000.

Date/timePositionNaut miles runAvg speedWind from/ knotsBaromVisibWave heightAir tempDewpointWater temp
2016-Aug-23 23:24N 37°40' W 127°09'5210.7
2016-Aug-23 18:29N 37°12' W 126°13'3610.8
2016-Aug-23 15:10N 36°52' W 125°36'711.3
2016-Aug-23 14:32N 36°48' W 125°28'2210.9
2016-Aug-23 12:31N 36°37' W 125°05'1111.3
2016-Aug-23 11:33N 36°31' W 124°54'1211.5
2016-Aug-23 10:33N 36°25' W 124°42'1411.0
2016-Aug-23 09:15N 36°17' W 124°27'811.1
2016-Aug-23 08:33N 36°13' W 124°18'1111.0
2016-Aug-23 07:33N 36°07' W 124°07'1110.9
2016-Aug-23 06:33N 36°01' W 123°56'1111.0
2016-Aug-23 05:33N 35°56' W 123°44'1111.0
2016-Aug-23 04:33N 35°50' W 123°33'1111.1
2016-Aug-23 03:33N 35°44' W 123°21'1211.5
2016-Aug-23 02:33N 35°38' W 123°09'1111.4
2016-Aug-23 01:33N 35°31' W 122°57'1111.4
2016-Aug-23 00:33N 35°25' W 122°46'1111.5
2016-Aug-22 23:33N 35°19' W 122°34'1111.5
2016-Aug-22 22:33N 35°13' W 122°22'1111.3
2016-Aug-22 21:33N 35°06' W 122°10'1111.2
2016-Aug-22 20:33N 35°01' W 121°59'1111.1
2016-Aug-22 19:33N 34°55' W 121°47'1211.9
2016-Aug-22 18:33N 34°48' W 121°35'1312.1
2016-Aug-22 17:31N 34°41' W 121°22'1612.1
2016-Aug-22 16:13N 34°33' W 121°06'3111.2
2016-Aug-22 13:26N 34°21' W 120°31'1210.9
2016-Aug-22 12:20N 34°18' W 120°17'810.4
2016-Aug-22 11:33N 34°16' W 120°07'1010.1
2016-Aug-22 10:33N 34°14' W 119°56'2010.0
2016-Aug-22 08:33N 34°08' W 119°32'1010.3
2016-Aug-22 07:33N 34°05' W 119°20'1010.3
2016-Aug-22 06:33N 34°01' W 119°09'1010.0
2016-Aug-22 05:33N 33°56' W 118°59'10 9.5
2016-Aug-22 04:33N 33°52' W 118°49'10 9.6
2016-Aug-22 03:33N 33°47' W 118°39'1010.2
2016-Aug-22 02:33N 33°42' W 118°28'1010.2
2016-Aug-22 01:33N 33°38' W 118°16'7 6.7
2016-Aug-22 00:33N 33°44' W 118°12'1 0.6
2016-Aug-21 22:30N 33°45' W 118°12'0 0.0
2016-Aug-21 21:30N 33°45' W 118°12'0 0.0
2016-Aug-21 20:18N 33°45' W 118°12'0 0.0
2016-Aug-21 19:30N 33°45' W 118°12'0 0.0
2016-Aug-21 18:24N 33°45' W 118°12'0 0.0
2016-Aug-21 17:30N 33°45' W 118°12'0 0.0
2016-Aug-21 16:06N 33°45' W 118°12'0 0.0
2016-Aug-21 15:33N 33°45' W 118°12'0 0.0
2016-Aug-21 14:30N 33°45' W 118°12'0 0.0
2016-Aug-21 13:30N 33°45' W 118°12'0 0.0
2016-Aug-21 12:30N 33°45' W 118°12'0 0.0
2016-Aug-21 11:33N 33°45' W 118°12'0 0.0
2016-Aug-21 10:15N 33°45' W 118°12'0 0.0
2016-Aug-21 09:33N 33°45' W 118°12'0 0.0
2016-Aug-21 08:30N 33°45' W 118°12'0 0.0
2016-Aug-21 07:33N 33°45' W 118°12'0 0.0
2016-Aug-21 06:30N 33°45' W 118°12'0 0.0
2016-Aug-21 05:30N 33°45' W 118°12'0 0.0
2016-Aug-21 04:30N 33°45' W 118°12'0 0.0
2016-Aug-21 03:27N 33°45' W 118°12'0 0.1
2016-Aug-21 02:33N 33°45' W 118°12'2 1.9
2016-Aug-21 01:29N 33°44' W 118°10'0 0.0
2016-Aug-21 00:32N 33°44' W 118°10'0 0.0
2016-Aug-20 23:32N 33°44' W 118°10'0 0.0
2016-Aug-20 22:32N 33°44' W 118°10'0 0.0
2016-Aug-20 21:26N 33°44' W 118°10'0 0.0
2016-Aug-20 20:29N 33°44' W 118°10'0 0.0
2016-Aug-20 19:29N 33°44' W 118°10'0 0.0
2016-Aug-20 18:08N 33°44' W 118°10'0 0.1
2016-Aug-20 17:14N 33°44' W 118°10'0 0.0
2016-Aug-20 16:32N 33°44' W 118°10'0 0.1
2016-Aug-20 15:32N 33°44' W 118°10'0 0.0
2016-Aug-20 14:32N 33°44' W 118°10'0 0.0
2016-Aug-20 13:32N 33°44' W 118°10'0 0.0
2016-Aug-20 12:29N 33°44' W 118°10'0 0.0
2016-Aug-20 11:32N 33°44' W 118°10'0 0.0
2016-Aug-20 10:32N 33°44' W 118°10'0 0.0
2016-Aug-20 09:32N 33°44' W 118°10'0 0.0
2016-Aug-20 08:29N 33°44' W 118°10'0 0.0
2016-Aug-20 07:26N 33°44' W 118°10'0 0.0
2016-Aug-20 06:32N 33°44' W 118°10'0 0.0
2016-Aug-20 04:17N 33°44' W 118°10'0 0.0
2016-Aug-20 03:32N 33°44' W 118°10'0 0.0
2016-Aug-20 02:32N 33°44' W 118°10'0 0.0
2016-Aug-20 01:32N 33°44' W 118°10'0 0.0
2016-Aug-20 00:32N 33°44' W 118°10'0 0.0
2016-Aug-19 23:32N 33°44' W 118°10'0 0.0
2016-Aug-19 22:29N 33°44' W 118°10'0 0.0
2016-Aug-19 21:32N 33°44' W 118°10'0 0.0
2016-Aug-19 20:32N 33°44' W 118°10'0 0.0
2016-Aug-19 19:29N 33°44' W 118°10'0 0.0
2016-Aug-19 18:29N 33°44' W 118°10'0 0.0
2016-Aug-19 17:32N 33°44' W 118°10'0 0.0
2016-Aug-19 16:32N 33°44' W 118°10'0 0.0
2016-Aug-19 15:32N 33°44' W 118°10'0 0.0
2016-Aug-19 14:32N 33°44' W 118°10'0 0.0
2016-Aug-19 13:33N 33°44' W 118°10'0 0.0
2016-Aug-19 12:32N 33°44' W 118°10'0 0.0
2016-Aug-19 11:32N 33°44' W 118°10'0 0.0
2016-Aug-19 10:26N 33°44' W 118°10'0 0.0
2016-Aug-19 09:32N 33°44' W 118°10'0 0.0
2016-Aug-19 08:29N 33°44' W 118°10'0 0.1
2016-Aug-19 07:32N 33°44' W 118°10'0 0.0
2016-Aug-19 06:32N 33°44' W 118°10'0 0.0
2016-Aug-19 05:32N 33°44' W 118°10'0 0.0
2016-Aug-19 04:23N 33°44' W 118°10'0 0.0
2016-Aug-19 03:29N 33°44' W 118°10'0 0.0
2016-Aug-19 02:32N 33°44' W 118°10'0 0.0
2016-Aug-19 01:32N 33°44' W 118°10'0 0.2
2016-Aug-19 00:29N 33°44' W 118°11'2 1.9
2016-Aug-18 23:33N 33°45' W 118°12'0 0.0
2016-Aug-18 22:32N 33°45' W 118°12'0 0.0
2016-Aug-18 21:32N 33°45' W 118°12'0 0.0
2016-Aug-18 20:32N 33°45' W 118°12'0 0.0
2016-Aug-18 19:32N 33°45' W 118°12'0 0.0
2016-Aug-18 18:32N 33°45' W 118°12'0 0.0
2016-Aug-18 17:23N 33°45' W 118°12'0 0.0
2016-Aug-18 16:32N 33°45' W 118°12'0 0.0
2016-Aug-18 15:32N 33°45' W 118°12'0 0.0
2016-Aug-18 14:32N 33°45' W 118°12'0 0.0
2016-Aug-18 13:32N 33°45' W 118°12'0 0.0
2016-Aug-18 12:32N 33°45' W 118°12'0 0.0
2016-Aug-18 11:32N 33°45' W 118°12'0 0.0
2016-Aug-18 10:32N 33°45' W 118°12'0 0.0
2016-Aug-18 09:32N 33°45' W 118°12'0 0.0
2016-Aug-18 08:29N 33°45' W 118°12'0 0.0
2016-Aug-18 07:32N 33°45' W 118°12'0 0.0
2016-Aug-18 06:32N 33°45' W 118°12'0 0.0
2016-Aug-18 05:32N 33°45' W 118°12'0 0.0
2016-Aug-18 04:29N 33°45' W 118°12'0 0.0
2016-Aug-18 03:32N 33°45' W 118°12'0 0.0
2016-Aug-18 02:32N 33°45' W 118°12'0 0.0
2016-Aug-18 01:32N 33°45' W 118°12'0 0.0
2016-Aug-18 00:32N 33°45' W 118°12'0 0.0
2016-Aug-17 23:32N 33°45' W 118°12'0 0.0
2016-Aug-17 22:32N 33°45' W 118°12'0 0.0
2016-Aug-17 21:32N 33°45' W 118°12'0 0.0
2016-Aug-17 20:32N 33°45' W 118°12'0 0.0
2016-Aug-17 19:32N 33°45' W 118°12'0 0.0
2016-Aug-17 18:29N 33°45' W 118°12'0 0.0
2016-Aug-17 14:29N 33°45' W 118°12'0 0.0
2016-Aug-17 13:32N 33°45' W 118°12'0 0.0
2016-Aug-17 12:23N 33°45' W 118°12'0 0.0
2016-Aug-17 11:32N 33°45' W 118°12'0 0.0
2016-Aug-17 10:32N 33°45' W 118°12'0 0.0
2016-Aug-17 09:32N 33°45' W 118°12'0 0.0
2016-Aug-17 08:32N 33°45' W 118°12'0 0.0
2016-Aug-17 07:32N 33°45' W 118°12'0 0.0
2016-Aug-17 06:32N 33°45' W 118°12'0 0.0
2016-Aug-17 05:32N 33°45' W 118°12'0 0.0
2016-Aug-17 04:23N 33°45' W 118°12'0 0.0
2016-Aug-17 03:32N 33°45' W 118°12'0 0.0
2016-Aug-17 02:32N 33°45' W 118°12'0 0.0
2016-Aug-17 01:32N 33°45' W 118°12'0 0.0
2016-Aug-17 00:20N 33°45' W 118°12'0 0.0
2016-Aug-16 23:32N 33°45' W 118°12'0 0.0
2016-Aug-16 22:32N 33°45' W 118°12'0 0.0
2016-Aug-16 21:32N 33°45' W 118°12'0 0.0
2016-Aug-16 20:32N 33°45' W 118°12'0 0.0
2016-Aug-16 19:32N 33°45' W 118°12'0 0.0
2016-Aug-16 18:32N 33°45' W 118°12'0 0.0
2016-Aug-16 17:32N 33°45' W 118°12'0 0.0
2016-Aug-16 16:32N 33°45' W 118°12'0 0.0
2016-Aug-16 15:32N 33°45' W 118°12'0 0.0
2016-Aug-16 14:32N 33°45' W 118°12'0 0.0
2016-Aug-16 13:32N 33°45' W 118°12'0 0.0
2016-Aug-16 12:32N 33°45' W 118°12'0 0.0
2016-Aug-16 11:32N 33°45' W 118°12'0 0.0
2016-Aug-16 10:32N 33°45' W 118°12'0 0.0
2016-Aug-16 09:32N 33°45' W 118°12'0 0.0
2016-Aug-16 08:32N 33°45' W 118°12'0 0.0
2016-Aug-16 07:32N 33°45' W 118°12'4 1.4
2016-Aug-16 04:32N 33°42' W 118°09'0 0.0
2016-Aug-16 03:32N 33°42' W 118°09'0 0.0
2016-Aug-16 02:32N 33°42' W 118°09'0 0.0
2016-Aug-16 01:32N 33°42' W 118°09'0 0.0
2016-Aug-16 00:32N 33°42' W 118°09'0 0.0
2016-Aug-15 23:32N 33°42' W 118°09'0 0.0
2016-Aug-15 22:32N 33°42' W 118°09'0 0.0
2016-Aug-15 21:32N 33°42' W 118°09'0 0.0
2016-Aug-15 20:32N 33°42' W 118°09'0 0.0
2016-Aug-15 19:32N 33°42' W 118°09'0 0.0
2016-Aug-15 18:32N 33°42' W 118°09'0 0.0
2016-Aug-15 17:32N 33°42' W 118°09'0 0.1
2016-Aug-15 16:32N 33°42' W 118°09'0 0.0
2016-Aug-15 15:32N 33°42' W 118°09'0 0.0
2016-Aug-15 14:32N 33°42' W 118°09'0 0.0
2016-Aug-15 13:32N 33°42' W 118°09'0 0.0
2016-Aug-15 12:32N 33°42' W 118°09'0 0.0
2016-Aug-15 11:32N 33°42' W 118°09'0 0.0
2016-Aug-15 10:32N 33°42' W 118°09'0 0.1
2016-Aug-15 09:32N 33°42' W 118°09'0 0.0
2016-Aug-15 08:32N 33°42' W 118°09'0 0.0
2016-Aug-15 07:29N 33°42' W 118°09'0 0.0
2016-Aug-15 06:32N 33°42' W 118°09'0 0.0
2016-Aug-15 04:32N 33°42' W 118°09'0 0.0
2016-Aug-15 03:32N 33°42' W 118°09'0 0.0
2016-Aug-15 02:32N 33°42' W 118°09'0 0.0
2016-Aug-15 01:32N 33°42' W 118°09'0 0.0
2016-Aug-15 00:32N 33°42' W 118°09'0 0.0
2016-Aug-14 23:32N 33°42' W 118°09'0 0.0
2016-Aug-14 22:32N 33°42' W 118°09'0 0.0
2016-Aug-14 21:32N 33°42' W 118°09'0 0.0
2016-Aug-14 20:32N 33°42' W 118°09'0 0.0
2016-Aug-14 19:32N 33°42' W 118°09'0 0.0
2016-Aug-14 18:32N 33°42' W 118°09'0 0.1
2016-Aug-14 17:32N 33°42' W 118°09'0 0.0
2016-Aug-14 16:32N 33°42' W 118°09'0 0.0
2016-Aug-14 15:32N 33°42' W 118°09'0 0.0
2016-Aug-14 14:32N 33°42' W 118°09'0 0.1
2016-Aug-14 13:32N 33°42' W 118°09'0 0.1
2016-Aug-14 12:32N 33°42' W 118°09'0 0.0
2016-Aug-14 11:32N 33°42' W 118°09'0 0.0
2016-Aug-14 10:32N 33°42' W 118°09'0 0.0
2016-Aug-14 09:32N 33°42' W 118°09'0 0.1
2016-Aug-14 08:32N 33°42' W 118°09'0 0.0
2016-Aug-14 07:32N 33°42' W 118°09'0 0.0
2016-Aug-14 06:32N 33°42' W 118°09'0 0.0
2016-Aug-14 04:32N 33°42' W 118°09'0 0.0
2016-Aug-14 03:32N 33°42' W 118°09'0 0.0
2016-Aug-14 02:32N 33°42' W 118°09'0 0.0
2016-Aug-14 01:32N 33°42' W 118°09'0 0.0
2016-Aug-14 00:32N 33°42' W 118°09'0 0.0
2016-Aug-13 23:32N 33°42' W 118°09'  

Dump ship's entire track history